Time;durP1;ratioP1;P1;durP2;ratioP2;P2;SDS_P1;SDS_P2;PMS_P1;PMS_P2;Temp;Humidity;BMP_temperature;BMP_pressure;BME280_temperature;BME280_humidity;BME280_pressure;Samples;Min_cycle;Max_cycle;Signal;HPM_P1;HPM_P2
2021/01/09 00:00:41;;;;;;;57.25;23.52;;;;;;;0.71;85.73;100220.84;120242;1146;27473;-61
2021/01/09 00:03:11;;;;;;;55.75;23.50;;;;;;;0.71;85.52;100226.34;120221;1147;27337;-61
2021/01/09 00:05:41;;;;;;;55.63;23.37;;;;;;;0.70;85.77;100219.28;120256;1148;22921;-60
2021/01/09 00:08:11;;;;;;;53.20;22.37;;;;;;;0.70;85.43;100224.77;120215;1148;22921;-60
2021/01/09 00:10:41;;;;;;;54.30;23.43;;;;;;;0.71;85.26;100237.34;120213;1147;27694;-60
2021/01/09 00:13:11;;;;;;;53.23;23.65;;;;;;;0.73;85.19;100220.43;120270;1148;22966;-60
2021/01/09 00:15:40;;;;;;;52.17;22.50;;;;;;;0.75;85.47;100220.80;120188;1147;22945;-61
2021/01/09 00:18:11;;;;;;;62.35;25.88;;;;;;;0.75;85.30;100224.33;120257;1147;25970;-62
2021/01/09 00:20:41;;;;;;;63.92;26.80;;;;;;;0.75;85.07;100229.82;120224;1148;22938;-61
2021/01/09 00:23:10;;;;;;;;;;;;;;;0.76;85.07;100230.61;120235;1148;23006;-62
2021/01/09 00:25:40;;;;;;;59.00;26.97;;;;;;;0.74;85.39;100222.78;120224;1147;26944;-61
2021/01/09 00:28:11;;;;;;;67.10;28.13;;;;;;;0.76;85.05;100230.61;120492;1147;22906;-61
2021/01/09 00:30:41;;;;;;;63.40;27.80;;;;;;;0.78;85.30;100228.23;120293;1146;26398;-60
2021/01/09 00:33:11;;;;;;;65.50;29.37;;;;;;;0.78;85.65;100225.48;120232;1148;22916;-61
2021/01/09 00:35:41;;;;;;;65.83;30.07;;;;;;;0.80;85.29;100239.58;120437;1148;24545;-61
2021/01/09 00:38:11;;;;;;;64.20;29.20;;;;;;;0.82;85.76;100239.95;120190;1148;22942;-60
2021/01/09 00:40:41;;;;;;;64.35;27.95;;;;;;;0.85;85.23;100241.09;120251;1147;22924;-61
2021/01/09 00:43:11;;;;;;;59.10;26.50;;;;;;;0.85;85.70;100241.85;120694;1148;22900;-61
2021/01/09 00:45:41;;;;;;;60.50;26.75;;;;;;;0.85;85.14;100247.34;120264;1148;22959;-60
2021/01/09 00:48:11;;;;;;;64.75;27.62;;;;;;;0.86;85.68;100245.38;120253;1148;22935;-60
2021/01/09 00:50:41;;;;;;;60.80;26.47;;;;;;;0.86;85.51;100254.41;120228;1148;23070;-61
2021/01/09 00:53:11;;;;;;;59.85;27.60;;;;;;;0.88;85.42;100249.28;120180;1148;23073;-61
2021/01/09 00:55:41;;;;;;;60.60;26.23;;;;;;;0.91;85.37;100250.44;120495;1147;23067;-61
2021/01/09 00:58:11;;;;;;;62.00;26.70;;;;;;;0.90;85.33;100257.11;120290;1147;22913;-61
2021/01/09 01:00:41;;;;;;;57.98;25.65;;;;;;;0.91;85.74;100253.18;120264;1147;23048;-60
2021/01/09 01:03:11;;;;;;;58.40;25.97;;;;;;;0.91;85.20;100250.44;120328;1148;23083;-61
2021/01/09 01:05:46;;;;;;;61.53;27.67;;;;;;;0.90;85.20;100257.11;120236;1147;22915;-60
2021/01/09 01:08:16;;;;;;;57.40;26.13;;;;;;;0.89;85.43;100266.56;120320;1146;22921;-61
2021/01/09 01:10:47;;;;;;;59.35;25.27;;;;;;;0.87;85.20;100261.45;120103;1146;22920;-61
2021/01/09 01:13:17;;;;;;;53.07;24.37;;;;;;;0.88;85.26;100262.23;120246;1146;24446;-62
2021/01/09 01:15:46;;;;;;;;;;;;;;;0.88;85.98;100264.98;120430;1146;23077;-60
2021/01/09 01:18:20;;;;;;;54.83;24.70;;;;;;;0.87;85.72;100266.95;120376;1147;21561;-60
2021/01/09 01:20:51;;;;;;;58.20;23.90;;;;;;;0.87;85.85;100268.95;120514;1147;25985;-60
2021/01/09 01:23:21;;;;;;;57.30;24.17;;;;;;;0.88;85.47;100273.23;120426;1146;22985;-60
2021/01/09 01:25:52;;;;;;;57.60;22.27;;;;;;;0.87;85.56;100271.69;120609;1146;27391;-60
2021/01/09 01:28:22;;;;;;;53.28;23.62;;;;;;;0.86;85.46;100275.62;120389;1146;26366;-60
2021/01/09 01:30:53;;;;;;;53.85;23.22;;;;;;;0.85;85.85;100277.58;120459;1147;23370;-60
2021/01/09 01:33:22;;;;;;;;;;;;;;;0.86;86.07;100281.11;120424;1146;27591;-60
2021/01/09 01:35:52;;;;;;;55.45;23.15;;;;;;;0.86;85.97;100278.36;120398;1148;21633;-61
2021/01/09 01:38:23;;;;;;;48.10;21.67;;;;;;;0.84;85.54;100284.28;120297;1148;22926;-60
2021/01/09 01:40:59;;;;;;;52.20;22.50;;;;;;;0.85;85.97;100274.07;120306;1147;23393;-60
2021/01/09 01:43:30;;;;;;;51.80;22.20;;;;;;;0.86;85.46;100279.15;120270;1147;23228;-60
2021/01/09 01:46:00;;;;;;;;;;;;;;;0.88;85.72;100275.98;121168;1107;107640;-75
2021/01/09 01:48:31;;;;;;;49.50;21.48;;;;;;;0.86;85.67;100276.41;120855;1148;23704;-75
2021/01/09 01:51:01;;;;;;;48.83;21.37;;;;;;;0.88;85.47;100273.23;120567;1147;22903;-75
2021/01/09 01:53:31;;;;;;;;;;;;;;;0.89;85.57;100283.80;120652;1148;22942;-75
2021/01/09 01:56:01;;;;;;;50.87;22.27;;;;;;;0.87;86.05;100280.69;120559;1150;21562;-75
2021/01/09 01:58:31;;;;;;;49.57;20.57;;;;;;;0.89;86.11;100272.05;120626;1148;23129;-76
2021/01/09 02:01:01;;;;;;;49.53;19.57;;;;;;;0.90;85.78;100282.62;120603;1148;22916;-75
2021/01/09 02:03:31;;;;;;;50.65;20.82;;;;;;;0.91;85.74;100277.92;120612;1148;22951;-76
2021/01/09 02:06:06;;;;;;;48.00;22.10;;;;;;;0.90;86.02;100281.84;120580;1148;27739;-76
2021/01/09 02:08:40;;;;;;;56.70;23.20;;;;;;;0.89;85.74;100283.05;120715;1148;23716;-75
2021/01/09 02:11:18;;;;;;;49.80;22.20;;;;;;;0.87;86.02;100290.93;120691;1148;23063;-75
2021/01/09 02:13:56;;;;;;;49.43;21.60;;;;;;;0.86;85.42;100286.61;120776;1148;22939;-76
2021/01/09 02:16:26;;;;;;;53.07;22.03;;;;;;;0.85;85.43;100282.31;120724;1148;22906;-76
2021/01/09 02:18:57;;;;;;;49.48;22.55;;;;;;;0.83;85.95;100279.20;121236;1149;23054;-75
2021/01/09 02:21:34;;;;;;;;;;;;;;;0.81;85.45;100285.88;120750;1148;22949;-75
2021/01/09 02:24:11;;;;;;;53.70;23.90;;;;;;;0.80;85.67;100284.33;120603;1150;21568;-75
2021/01/09 02:26:42;;;;;;;53.77;22.70;;;;;;;0.83;86.12;100287.45;120793;1148;22945;-76
2021/01/09 02:29:11;;;;;;;;;;;;;;;0.80;85.88;100280.80;120652;1148;23196;-75
2021/01/09 02:31:48;;;;;;;51.40;21.37;;;;;;;0.77;85.60;100285.14;120678;1148;21559;-76
2021/01/09 02:34:22;;;;;;;50.50;22.67;;;;;;;0.78;85.71;100280.44;120489;1148;23733;-75
2021/01/09 02:36:53;;;;;;;52.13;22.60;;;;;;;0.77;85.58;100281.61;120549;1148;24025;-75
2021/01/09 02:39:25;;;;;;;52.98;21.40;;;;;;;0.78;85.77;100274.94;120609;1148;22926;-77
2021/01/09 02:41:56;;;;;;;47.73;21.87;;;;;;;0.76;86.11;100286.34;120580;1148;23087;-75
2021/01/09 02:44:26;;;;;;;48.90;22.40;;;;;;;0.76;85.31;100277.32;120688;1148;22917;-75
2021/01/09 02:46:56;;;;;;;43.08;20.48;;;;;;;0.73;85.83;100281.66;120509;1148;25721;-77
2021/01/09 02:49:26;;;;;;;52.43;22.40;;;;;;;0.74;85.51;100285.20;120538;1148;23991;-76
2021/01/09 02:51:55;;;;;;;47.53;21.00;;;;;;;0.73;85.50;100281.66;120537;1148;22975;-75
2021/01/09 02:54:25;;;;;;;51.68;20.97;;;;;;;0.73;86.29;100275.38;120533;1148;23035;-76
2021/01/09 02:56:57;;;;;;;44.20;19.82;;;;;;;0.73;85.67;100278.13;120562;1148;22945;-75
2021/01/09 02:59:28;;;;;;;42.77;20.33;;;;;;;0.72;86.34;100280.09;120616;1148;22976;-76
2021/01/09 03:01:56;;;;;;;;;;;;;;;0.72;86.33;100271.09;120624;1148;26701;-75
2021/01/09 03:04:26;;;;;;;49.67;20.03;;;;;;;0.72;86.38;100273.84;120558;1148;22289;-75
2021/01/09 03:06:56;;;;;;;44.30;20.02;;;;;;;0.72;86.21;100269.10;120632;1148;22929;-75
2021/01/09 03:09:26;;;;;;;41.43;17.83;;;;;;;0.73;86.04;100272.63;120606;1149;22981;-74
2021/01/09 03:11:56;;;;;;;43.45;19.85;;;;;;;0.72;86.02;100269.10;120632;1148;22926;-76
2021/01/09 03:14:27;;;;;;;44.60;18.17;;;;;;;0.72;86.55;100271.84;120541;1148;28415;-75
2021/01/09 03:16:55;;;;;;;;;;;;;;;0.73;86.28;100269.89;120663;1148;23052;-75
2021/01/09 03:19:25;;;;;;;47.45;17.10;;;;;;;0.75;86.17;100275.75;120580;1148;21587;-75
2021/01/09 03:21:55;;;;;;;41.30;16.93;;;;;;;0.75;85.75;100276.53;120508;1148;22919;-75
2021/01/09 03:24:25;;;;;;;37.53;15.33;;;;;;;0.73;85.89;100281.66;120537;1148;26349;-77
2021/01/09 03:26:56;;;;;;;41.65;17.40;;;;;;;0.74;85.64;100280.48;120543;1148;22945;-75
2021/01/09 03:29:26;;;;;;;39.75;17.15;;;;;;;0.76;85.62;100282.81;120517;1148;24649;-76
2021/01/09 03:31:57;;;;;;;39.73;16.70;;;;;;;0.76;86.03;100282.81;120540;1148;25957;-75
2021/01/09 03:34:27;;;;;;;40.53;15.87;;;;;;;0.76;86.34;100286.34;120568;1148;23008;-76
2021/01/09 03:36:57;;;;;;;39.30;16.32;;;;;;;0.76;85.83;100286.34;120523;1148;22910;-75
2021/01/09 03:39:27;;;;;;;37.67;14.10;;;;;;;0.76;85.76;100291.84;120517;1148;23046;-76
2021/01/09 03:41:57;;;;;;;39.80;15.98;;;;;;;0.78;85.58;100285.93;120499;1148;23086;-76
2021/01/09 03:44:27;;;;;;;37.90;15.78;;;;;;;0.79;85.52;100287.47;120570;1150;23031;-75
2021/01/09 03:46:57;;;;;;;36.53;16.13;;;;;;;0.80;85.76;100289.83;120573;1148;23479;-75
2021/01/09 03:49:26;;;;;;;41.40;16.35;;;;;;;0.81;86.19;100293.34;120491;1148;26024;-75
2021/01/09 03:51:56;;;;;;;35.40;14.73;;;;;;;0.80;85.75;100297.29;120507;1148;26114;-75
2021/01/09 03:54:27;;;;;;;39.87;17.10;;;;;;;0.77;86.27;100295.35;120553;1150;22934;-76
2021/01/09 03:56:57;;;;;;;40.12;18.23;;;;;;;0.78;85.67;100291.42;120596;1148;22923;-75
2021/01/09 03:59:26;;;;;;;39.27;17.48;;;;;;;0.78;86.41;100296.92;120597;1148;24285;-75
2021/01/09 04:01:56;;;;;;;41.13;16.00;;;;;;;0.76;86.27;100297.34;120559;1148;23350;-76
2021/01/09 04:04:26;;;;;;;39.63;15.75;;;;;;;0.77;85.92;100295.35;120527;1148;23681;-74
2021/01/09 04:06:56;;;;;;;35.93;16.47;;;;;;;0.77;85.81;100301.63;120600;1148;22983;-74
2021/01/09 04:09:26;;;;;;;42.13;17.00;;;;;;;0.79;86.32;100301.21;120606;1148;23546;-75
2021/01/09 04:11:56;;;;;;;42.93;17.53;;;;;;;0.80;86.63;100306.32;120494;1148;26558;-75
2021/01/09 04:14:26;;;;;;;44.23;18.17;;;;;;;0.80;85.98;100306.32;120549;1148;22938;-74
2021/01/09 04:16:56;;;;;;;40.58;16.65;;;;;;;0.77;85.98;100301.63;120552;1148;22939;-76
2021/01/09 04:19:27;;;;;;;42.67;17.10;;;;;;;0.77;86.24;100309.09;120706;1148;22931;-75
2021/01/09 04:21:57;;;;;;;40.60;15.70;;;;;;;0.76;86.21;100315.79;120604;1148;22923;-75
2021/01/09 04:24:27;;;;;;;39.45;16.23;;;;;;;0.76;86.42;100322.07;120534;1148;26407;-75
2021/01/09 04:26:58;;;;;;;42.13;14.97;;;;;;;0.75;86.63;100319.72;120544;1148;22972;-76
2021/01/09 04:29:30;;;;;;;39.10;14.40;;;;;;;0.73;86.72;100325.63;120542;1148;22922;-77
2021/01/09 04:32:00;;;;;;;38.33;14.40;;;;;;;0.73;86.42;100333.08;120592;1156;24564;-76
2021/01/09 04:34:30;;;;;;;39.25;13.90;;;;;;;0.71;86.50;100333.50;120530;1148;22934;-75
2021/01/09 04:37:00;;;;;;;33.88;12.53;;;;;;;0.69;86.30;100333.13;120537;1151;22980;-76
2021/01/09 04:39:30;;;;;;;37.73;13.53;;;;;;;0.69;86.25;100337.84;120569;1150;25961;-76
2021/01/09 04:42:00;;;;;;;38.65;13.60;;;;;;;0.69;86.37;100337.84;120578;1148;22939;-76
2021/01/09 04:44:30;;;;;;;29.53;11.43;;;;;;;0.66;86.39;100339.44;120545;1148;25967;-75
2021/01/09 04:47:02;;;;;;;31.00;11.25;;;;;;;0.66;86.34;100344.93;120595;1148;22990;-75
2021/01/09 04:49:32;;;;;;;28.97;9.90;;;;;;;0.65;86.67;100337.11;120592;1148;23040;-75
2021/01/09 04:52:04;;;;;;;28.53;9.13;;;;;;;0.64;86.33;100343.80;120579;1148;23279;-76
2021/01/09 04:54:35;;;;;;;26.37;9.03;;;;;;;0.65;86.86;100342.60;120548;1148;22922;-74
2021/01/09 04:57:04;;;;;;;;;;;;;;;0.64;86.05;100344.56;120698;1148;22938;-75
2021/01/09 04:59:35;;;;;;;25.07;8.87;;;;;;;0.65;86.54;100351.63;120615;1150;25510;-76
2021/01/09 05:02:08;;;;;;;27.53;9.43;;;;;;;0.64;86.89;100347.30;120595;1148;23019;-76
2021/01/09 05:04:43;;;;;;;21.90;7.65;;;;;;;0.65;86.09;100356.34;120532;1148;22982;-76
2021/01/09 05:07:13;;;;;;;25.97;8.43;;;;;;;0.64;86.61;100352.05;120697;1148;23087;-74
2021/01/09 05:09:45;;;;;;;21.23;7.57;;;;;;;0.64;86.71;100355.55;120505;1148;23000;-73
2021/01/09 05:12:17;;;;;;;27.10;9.33;;;;;;;0.63;86.52;100359.50;120577;1148;23016;-73
2021/01/09 05:14:50;;;;;;;23.40;8.10;;;;;;;0.63;86.02;100364.21;120616;1148;22923;-74
2021/01/09 05:17:20;;;;;;;24.53;8.13;;;;;;;0.63;85.80;100369.70;120839;1148;23796;-75
2021/01/09 05:19:52;;;;;;;23.67;8.08;;;;;;;0.63;86.81;100367.74;120515;1148;23050;-75
2021/01/09 05:22:22;;;;;;;23.37;7.13;;;;;;;0.62;86.24;100374.41;120617;1148;23054;-75
2021/01/09 05:24:53;;;;;;;20.87;6.50;;;;;;;0.62;86.60;100373.66;120511;1148;22915;-75
2021/01/09 05:27:23;;;;;;;19.93;6.50;;;;;;;0.62;86.50;100373.66;120661;1148;22926;-73
2021/01/09 05:29:55;;;;;;;23.55;8.33;;;;;;;0.61;86.29;100380.32;120592;1150;22931;-74
2021/01/09 05:32:26;;;;;;;26.33;9.40;;;;;;;0.62;86.71;100381.89;120583;1150;27126;-75
2021/01/09 05:34:55;;;;;;;;;;;;;;;0.60;86.24;100381.52;120560;1148;22962;-75
2021/01/09 05:37:26;;;;;;;;;;;;;;;0.59;86.26;100379.95;120614;1149;21572;-74
2021/01/09 05:39:57;;;;;;;27.83;9.73;;;;;;;0.56;86.57;100383.53;120570;1148;21627;-74
2021/01/09 05:42:29;;;;;;;25.85;8.95;;;;;;;0.53;86.18;100385.12;120713;1148;23493;-74
2021/01/09 05:45:00;;;;;;;24.97;9.03;;;;;;;0.50;86.81;100390.63;120939;1148;22950;-75
2021/01/09 05:47:30;;;;;;;;;;;;;;;0.48;86.13;100390.25;120850;1148;22948;-75
2021/01/09 05:50:01;;;;;;;20.62;6.40;;;;;;;0.46;86.01;100396.16;120646;1148;22346;-76
2021/01/09 05:52:37;;;;;;;21.33;7.20;;;;;;;0.44;86.05;100401.28;120629;1148;22929;-75
2021/01/09 05:55:08;;;;;;;15.75;4.95;;;;;;;0.43;86.56;100401.70;120726;1148;23084;-74
2021/01/09 05:57:44;;;;;;;18.27;5.73;;;;;;;0.41;85.79;100404.07;120774;1148;23031;-76
2021/01/09 06:00:21;;;;;;;21.07;6.80;;;;;;;0.41;85.80;100409.56;120756;1148;23021;-76
2021/01/09 06:03:08;;;;;;;23.23;6.83;;;;;;;0.40;86.11;100414.27;120786;1148;27558;-75
2021/01/09 06:05:46;;;;;;;20.90;7.00;;;;;;;0.41;85.77;100420.55;120851;1151;23806;-75
2021/01/09 06:08:19;;;;;;;19.27;6.60;;;;;;;0.41;85.91;100420.55;120799;1148;22945;-74
2021/01/09 06:10:54;;;;;;;22.70;7.37;;;;;;;0.41;86.37;100426.83;120775;1148;27098;-76
2021/01/09 06:13:28;;;;;;;22.57;7.30;;;;;;;0.42;86.11;100430.33;120976;1148;23026;-76
2021/01/09 06:16:06;;;;;;;19.67;6.40;;;;;;;0.42;86.14;100431.13;121213;1148;23052;-77
2021/01/09 06:18:37;;;;;;;21.03;6.70;;;;;;;0.42;86.24;100438.57;121069;1148;22923;-76
2021/01/09 06:21:08;;;;;;;;;;;;;;;0.40;85.74;100432.70;120894;1150;22892;-75
2021/01/09 06:23:39;;;;;;;18.00;4.93;;;;;;;0.38;85.76;100432.33;120864;1148;21558;-75
2021/01/09 06:26:12;;;;;;;18.00;5.67;;;;;;;0.37;85.85;100441.77;121003;1148;23002;-75
2021/01/09 06:28:50;;;;;;;17.60;5.83;;;;;;;0.35;85.22;100444.90;120942;1148;23005;-76
2021/01/09 06:31:22;;;;;;;14.87;4.53;;;;;;;0.33;85.63;100441.78;121296;1148;22960;-77
2021/01/09 06:33:54;;;;;;;16.53;5.43;;;;;;;0.31;85.42;100448.88;121002;1149;23050;-76
2021/01/09 06:36:26;;;;;;;18.37;5.43;;;;;;;0.29;85.19;100457.50;120948;1148;23451;-76
2021/01/09 06:38:58;;;;;;;16.20;4.97;;;;;;;0.29;85.82;100467.73;120941;1148;22957;-75
2021/01/09 06:41:33;;;;;;;15.57;3.97;;;;;;;0.27;85.40;100467.36;120929;1148;23473;-75
2021/01/09 06:44:07;;;;;;;15.37;4.83;;;;;;;0.26;84.99;100461.08;121050;1148;23002;-76
2021/01/09 06:46:39;;;;;;;15.40;4.43;;;;;;;0.24;85.27;100468.94;121007;1148;28688;-75
2021/01/09 06:49:17;;;;;;;13.43;3.63;;;;;;;0.24;85.58;100470.89;120935;1148;22996;-75
2021/01/09 06:51:54;;;;;;;17.20;5.15;;;;;;;0.22;85.07;100471.30;120981;1148;22926;-76
2021/01/09 06:54:42;;;;;;;14.37;3.97;;;;;;;0.21;84.52;100477.97;120992;1148;22926;-75
2021/01/09 06:57:17;;;;;;;10.80;3.40;;;;;;;0.19;85.12;100485.83;120933;1145;23002;-75
2021/01/09 06:59:51;;;;;;;11.00;2.80;;;;;;;0.18;84.88;100497.22;121080;1148;22971;-76
2021/01/09 07:02:25;;;;;;;9.70;2.23;;;;;;;0.16;84.09;100497.63;120887;1148;22923;-76
2021/01/09 07:05:00;;;;;;;8.73;2.40;;;;;;;0.16;83.82;100494.09;120722;1148;23028;-76
2021/01/09 07:07:37;;;;;;;12.20;2.97;;;;;;;0.14;84.36;100497.25;120889;1148;22934;-75
2021/01/09 07:10:18;;;;;;;11.90;3.10;;;;;;;0.14;84.70;100494.50;120849;1148;25977;-75
2021/01/09 07:12:56;;;;;;;12.55;2.80;;;;;;;0.13;84.22;100503.91;120830;1148;22962;-76
2021/01/09 07:15:27;;;;;;;10.30;2.73;;;;;;;0.11;84.00;100506.28;120977;1148;27409;-75
2021/01/09 07:18:01;;;;;;;11.87;2.50;;;;;;;0.12;83.79;100505.11;121177;1148;23087;-75
2021/01/09 07:20:36;;;;;;;10.35;2.40;;;;;;;0.12;83.70;100507.85;121304;1148;23055;-79
2021/01/09 07:23:08;;;;;;;11.73;2.50;;;;;;;0.11;84.12;100508.23;121179;1149;22889;-77
2021/01/09 07:25:40;;;;;;;8.93;2.27;;;;;;;0.10;83.58;100515.71;120905;1149;22991;-76
2021/01/09 07:28:14;;;;;;;15.40;3.20;;;;;;;0.10;83.73;100514.92;121149;1148;23347;-77
2021/01/09 07:30:45;;;;;;;13.87;3.37;;;;;;;0.09;83.57;100519.63;121212;1148;23328;-79
2021/01/09 07:33:16;;;;;;;10.97;2.67;;;;;;;0.10;84.37;100518.45;121347;1150;28730;-77
2021/01/09 07:35:47;;;;;;;11.87;3.03;;;;;;;0.10;84.38;100525.91;121287;1148;22923;-78
2021/01/09 07:38:16;;;;;;;;;;;;;;;0.11;83.81;100532.94;121257;1148;22916;-76
2021/01/09 07:40:55;;;;;;;10.10;2.23;;;;;;;0.10;83.85;100537.67;121192;1150;21583;-76
2021/01/09 07:43:37;;;;;;;9.80;2.25;;;;;;;0.09;84.07;100533.34;121308;1148;22930;-77
2021/01/09 07:46:27;;;;;;;10.77;2.67;;;;;;;0.09;83.82;100535.30;121604;1148;24555;-78
2021/01/09 07:49:02;;;;;;;13.35;2.52;;;;;;;0.09;83.81;100538.84;121781;1148;23126;-80
2021/01/09 07:52:04;;;;;;;12.13;3.00;;;;;;;0.10;84.20;100545.91;121960;1148;22962;-79
2021/01/09 07:54:39;;;;;;;13.50;3.07;;;;;;;0.11;83.90;100539.22;121194;1151;22926;-76
2021/01/09 07:57:25;;;;;;;12.73;3.37;;;;;;;0.11;83.83;100541.96;121038;1148;23039;-77
2021/01/09 08:00:07;;;;;;;11.17;2.70;;;;;;;0.12;83.95;100542.75;121569;1148;22955;-77
2021/01/09 08:02:39;;;;;;;11.50;2.75;;;;;;;0.13;83.30;100542.34;121501;1148;23084;-77
2021/01/09 08:05:16;;;;;;;10.77;2.50;;;;;;;0.14;83.41;100552.16;122084;1148;23021;-77
2021/01/09 08:07:48;;;;;;;9.57;2.33;;;;;;;0.17;83.54;100556.83;122455;1148;22906;-76
2021/01/09 08:10:25;;;;;;;8.33;2.10;;;;;;;0.18;83.49;100554.87;121737;1148;22997;-74
2021/01/09 08:12:59;;;;;;;9.23;2.47;;;;;;;0.21;83.69;100559.58;122025;1148;22925;-77
2021/01/09 08:15:30;;;;;;;9.17;2.37;;;;;;;0.23;83.83;100559.95;121984;1148;23000;-74
2021/01/09 08:18:05;;;;;;;8.65;2.40;;;;;;;0.25;83.48;100565.83;121988;1148;23232;-80
2021/01/09 08:20:35;;;;;;;8.93;2.10;;;;;;;0.24;83.07;100561.50;122463;1148;23834;-76
2021/01/09 08:23:08;;;;;;;10.90;2.42;;;;;;;0.26;82.68;100567.38;121938;1148;24547;-75
2021/01/09 08:25:42;;;;;;;10.50;2.23;;;;;;;0.27;82.41;100564.22;121851;1150;22926;-78
2021/01/09 08:28:14;;;;;;;7.90;1.77;;;;;;;0.28;82.62;100567.75;122173;1148;22955;-79
2021/01/09 08:30:45;;;;;;;6.07;1.50;;;;;;;0.30;82.18;100573.63;121709;1148;22864;-78
2021/01/09 08:33:17;;;;;;;9.17;2.20;;;;;;;0.29;82.73;100578.33;121564;1148;22923;-77
2021/01/09 08:35:51;;;;;;;8.93;2.47;;;;;;;0.30;82.61;100582.65;120899;1148;23028;-76
2021/01/09 08:38:29;;;;;;;8.37;1.87;;;;;;;0.31;82.71;100581.45;120916;1149;22935;-74
2021/01/09 08:41:03;;;;;;;9.67;2.30;;;;;;;0.33;83.17;100584.58;120914;1149;23010;-76
2021/01/09 08:43:33;;;;;;;10.80;2.80;;;;;;;0.34;82.76;100588.90;120989;1148;22955;-77
2021/01/09 08:46:04;;;;;;;10.93;3.00;;;;;;;0.36;82.77;100593.98;121350;1148;23096;-79
2021/01/09 08:48:36;;;;;;;10.97;2.87;;;;;;;0.38;83.26;100603.39;121400;1148;22898;-78
2021/01/09 08:51:11;;;;;;;13.55;2.80;;;;;;;0.40;83.48;100589.25;121362;1148;26018;-78
2021/01/09 08:53:48;;;;;;;11.70;3.15;;;;;;;0.42;83.03;100593.16;121340;1148;22931;-76
2021/01/09 08:56:20;;;;;;;11.40;3.03;;;;;;;0.45;82.53;100599.83;121047;1148;22927;-77
2021/01/09 08:58:51;;;;;;;14.27;3.50;;;;;;;0.46;83.08;100599.41;120887;1148;22919;-76
2021/01/09 09:01:26;;;;;;;12.80;4.00;;;;;;;0.48;83.28;100601.75;120848;1149;27257;-76
2021/01/09 09:04:01;;;;;;;17.80;3.27;;;;;;;0.50;82.51;100602.92;120953;1148;22901;-76
2021/01/09 09:06:35;;;;;;;15.50;4.30;;;;;;;0.52;83.20;100606.05;121009;1148;22948;-76
2021/01/09 09:09:07;;;;;;;15.80;4.30;;;;;;;0.55;82.44;100607.21;120933;1148;22910;-76
2021/01/09 09:11:40;;;;;;;18.07;4.77;;;;;;;0.55;83.15;100605.25;120991;1149;23084;-77
2021/01/09 09:14:12;;;;;;;14.17;3.93;;;;;;;0.57;82.86;100604.84;121224;1148;23228;-77
2021/01/09 09:16:45;;;;;;;12.10;3.60;;;;;;;0.59;82.39;100607.97;121029;1148;22958;-76
2021/01/09 09:19:16;;;;;;;14.97;3.27;;;;;;;0.59;82.43;100606.01;121101;1148;24755;-78
2021/01/09 09:21:50;;;;;;;12.53;3.33;;;;;;;0.60;82.31;100604.81;121047;1148;25887;-76
2021/01/09 09:24:21;;;;;;;14.77;3.90;;;;;;;0.61;82.65;100606.39;120889;1148;22927;-76
2021/01/09 09:26:51;;;;;;;12.00;3.67;;;;;;;0.65;83.23;100603.61;121090;1148;26488;-77
2021/01/09 09:29:30;;;;;;;12.35;3.27;;;;;;;0.65;82.26;100601.65;121147;1148;23252;-77
2021/01/09 09:32:00;;;;;;;13.15;4.03;;;;;;;0.67;82.61;100607.52;121191;1148;22945;-77
2021/01/09 09:34:30;;;;;;;16.00;3.62;;;;;;;0.69;82.20;100605.15;120978;1148;22949;-76
2021/01/09 09:37:01;;;;;;;17.05;4.20;;;;;;;0.72;82.42;100609.06;120864;1148;27572;-75
2021/01/09 09:39:35;;;;;;;;;;;;;;;0.73;82.02;100608.66;120846;1148;22950;-77
2021/01/09 09:42:05;;;;;;;16.33;4.07;;;;;;;0.75;82.89;100606.28;120863;1148;21563;-77
2021/01/09 09:44:39;;;;;;;14.67;4.30;;;;;;;0.77;82.54;100594.88;121149;1148;27402;-76
2021/01/09 09:47:23;;;;;;;15.90;4.47;;;;;;;0.80;81.77;100605.08;121151;1150;25642;-79
2021/01/09 09:49:59;;;;;;;12.73;3.20;;;;;;;0.81;81.93;100603.88;120984;1148;22926;-77
2021/01/09 09:52:28;;;;;;;11.75;3.50;;;;;;;0.78;81.74;100605.48;120761;1149;23136;-77
2021/01/09 09:55:06;;;;;;;13.47;3.43;;;;;;;0.77;81.44;100603.91;120844;1148;27337;-77
2021/01/09 09:57:36;;;;;;;12.43;3.40;;;;;;;0.76;81.56;100599.61;120866;1148;25909;-76
2021/01/09 10:00:09;;;;;;;15.03;3.67;;;;;;;0.77;81.42;100605.88;120718;1148;28317;-77
2021/01/09 10:02:51;;;;;;;18.40;4.57;;;;;;;0.77;81.57;100601.16;120893;1148;22958;-77
2021/01/09 10:05:23;;;;;;;14.47;4.43;;;;;;;0.80;81.38;100610.58;120783;1148;24784;-77
2021/01/09 10:08:10;;;;;;;17.87;5.17;;;;;;;0.81;81.93;100606.63;120697;1148;24120;-77
2021/01/09 10:10:40;;;;;;;22.23;6.07;;;;;;;0.80;81.77;100614.11;120895;1148;23078;-77
2021/01/09 10:13:09;;;;;;;;;;;;;;;0.81;81.63;100609.38;120774;1150;23087;-76
2021/01/09 10:15:39;;;;;;;16.93;4.80;;;;;;;0.80;81.63;100605.08;120701;1150;23012;-77
2021/01/09 10:18:09;;;;;;;16.30;5.47;;;;;;;0.79;81.18;100595.26;120815;1148;25504;-77
2021/01/09 10:20:39;;;;;;;14.38;4.03;;;;;;;0.79;81.16;100595.26;120829;1148;23087;-76
2021/01/09 10:23:10;;;;;;;14.07;3.93;;;;;;;0.78;81.44;100577.22;120742;1148;26404;-77
2021/01/09 10:25:40;;;;;;;18.02;6.03;;;;;;;0.80;81.91;100597.63;120770;1148;27381;-77
2021/01/09 10:28:10;;;;;;;15.23;3.98;;;;;;;0.81;81.95;100588.17;120765;1148;27579;-77
2021/01/09 10:30:40;;;;;;;14.93;4.12;;;;;;;0.81;81.45;100588.17;120708;1148;26369;-75
2021/01/09 10:33:09;;;;;;;;;;;;;;;0.83;82.00;100587.77;120823;1148;26360;-76
2021/01/09 10:35:39;;;;;;;16.97;4.73;;;;;;;0.83;81.82;100591.30;120750;1150;22225;-77
2021/01/09 10:38:09;;;;;;;14.58;4.05;;;;;;;0.85;81.09;100599.13;120670;1148;22940;-78
2021/01/09 10:40:40;;;;;;;13.28;3.92;;;;;;;0.86;81.40;100605.42;120802;1148;22895;-76
2021/01/09 10:43:10;;;;;;;15.17;3.47;;;;;;;0.86;81.67;100603.45;120771;1148;23080;-76
2021/01/09 10:45:42;;;;;;;15.65;4.20;;;;;;;0.88;81.41;100597.55;120871;1149;25877;-77
2021/01/09 10:48:13;;;;;;;17.50;5.40;;;;;;;0.91;81.91;100594.00;120885;1148;25945;-77
2021/01/09 10:50:43;;;;;;;14.58;4.15;;;;;;;0.92;81.69;100588.09;120886;1150;22959;-76
2021/01/09 10:53:12;;;;;;;16.97;4.50;;;;;;;0.93;81.25;100600.67;120794;1150;22975;-76
2021/01/09 10:55:42;;;;;;;15.85;4.85;;;;;;;0.93;80.96;100599.87;120683;1148;22961;-77
2021/01/09 10:58:12;;;;;;;17.62;5.35;;;;;;;0.91;81.06;100600.26;120793;1148;26376;-78
2021/01/09 11:00:42;;;;;;;16.67;4.87;;;;;;;0.93;81.38;100592.42;121260;1148;27487;-77
2021/01/09 11:03:13;;;;;;;17.10;4.37;;;;;;;0.92;81.46;100590.84;120675;1150;25999;-76
2021/01/09 11:05:44;;;;;;;17.70;5.47;;;;;;;0.93;81.43;100594.38;120623;1148;22930;-75
2021/01/09 11:08:14;;;;;;;21.80;5.70;;;;;;;0.94;81.22;100590.42;120691;1150;22930;-75
2021/01/09 11:10:44;;;;;;;15.85;4.83;;;;;;;0.95;81.03;100589.26;120661;1149;22945;-75
2021/01/09 11:13:14;;;;;;;11.43;3.60;;;;;;;0.94;81.01;100582.19;120615;1150;23054;-75
2021/01/09 11:15:47;;;;;;;12.97;3.27;;;;;;;0.95;80.04;100587.30;120639;1148;22976;-75
2021/01/09 11:18:18;;;;;;;12.30;2.65;;;;;;;0.94;79.90;100584.94;120608;1148;22958;-74
2021/01/09 11:20:50;;;;;;;8.87;2.40;;;;;;;0.94;80.07;100584.94;120691;1148;23087;-75
2021/01/09 11:23:20;;;;;;;16.33;3.40;;;;;;;0.94;80.09;100584.94;121000;1148;25836;-77
2021/01/09 11:25:50;;;;;;;12.75;3.42;;;;;;;0.96;79.43;100588.05;121004;1148;22914;-75
2021/01/09 11:28:21;;;;;;;10.00;2.08;;;;;;;0.94;79.40;100579.44;120730;1148;22975;-76
2021/01/09 11:30:52;;;;;;;11.47;2.67;;;;;;;0.95;79.11;100586.51;120627;1148;22882;-75
2021/01/09 11:33:22;;;;;;;11.15;2.47;;;;;;;0.95;79.16;100583.76;120742;1148;22922;-77
2021/01/09 11:35:52;;;;;;;8.95;2.08;;;;;;;0.95;79.60;100581.01;120753;1148;22998;-76
2021/01/09 11:38:23;;;;;;;10.20;2.55;;;;;;;0.96;78.93;100579.81;120681;1148;23400;-76
2021/01/09 11:40:52;;;;;;;;;;;;;;;0.96;79.69;100580.59;120698;1148;22958;-76